sensor_id;sensor_type;location;lat;lon;timestamp;P1;durP1;ratioP1;P2;durP2;ratioP2
16115;SDS011;8162;47.104;15.432;2023-07-20T00:00:51;6.03;;;4.83;;
16115;SDS011;8162;47.104;15.432;2023-07-20T00:03:53;7.87;;;5.00;;
16115;SDS011;8162;47.104;15.432;2023-07-20T00:06:57;6.53;;;4.60;;
16115;SDS011;8162;47.104;15.432;2023-07-20T00:09:59;9.17;;;5.07;;
16115;SDS011;8162;47.104;15.432;2023-07-20T00:13:00;8.77;;;5.63;;
16115;SDS011;8162;47.104;15.432;2023-07-20T00:16:01;7.53;;;5.23;;
16115;SDS011;8162;47.104;15.432;2023-07-20T00:19:02;8.57;;;4.90;;
16115;SDS011;8162;47.104;15.432;2023-07-20T00:22:04;6.93;;;5.10;;
16115;SDS011;8162;47.104;15.432;2023-07-20T00:25:06;8.63;;;6.13;;
16115;SDS011;8162;47.104;15.432;2023-07-20T00:28:07;9.73;;;5.23;;
16115;SDS011;8162;47.104;15.432;2023-07-20T00:31:08;8.17;;;5.40;;
16115;SDS011;8162;47.104;15.432;2023-07-20T00:34:09;9.37;;;5.83;;
16115;SDS011;8162;47.104;15.432;2023-07-20T00:37:10;7.73;;;5.50;;
16115;SDS011;8162;47.104;15.432;2023-07-20T00:40:11;6.23;;;5.47;;
16115;SDS011;8162;47.104;15.432;2023-07-20T00:43:12;6.47;;;5.27;;
16115;SDS011;8162;47.104;15.432;2023-07-20T00:46:13;7.43;;;5.30;;
16115;SDS011;8162;47.104;15.432;2023-07-20T00:49:15;6.03;;;5.40;;
16115;SDS011;8162;47.104;15.432;2023-07-20T00:52:16;6.37;;;5.13;;
16115;SDS011;8162;47.104;15.432;2023-07-20T00:55:19;7.73;;;5.40;;
16115;SDS011;8162;47.104;15.432;2023-07-20T00:58:20;6.80;;;5.70;;
16115;SDS011;8162;47.104;15.432;2023-07-20T01:01:22;6.97;;;5.37;;
16115;SDS011;8162;47.104;15.432;2023-07-20T01:04:23;8.77;;;5.43;;
16115;SDS011;8162;47.104;15.432;2023-07-20T01:07:28;7.57;;;5.20;;
16115;SDS011;8162;47.104;15.432;2023-07-20T01:10:33;5.80;;;5.00;;
16115;SDS011;8162;47.104;15.432;2023-07-20T01:13:37;6.27;;;4.93;;
16115;SDS011;8162;47.104;15.432;2023-07-20T01:16:38;9.90;;;5.30;;
16115;SDS011;8162;47.104;15.432;2023-07-20T01:19:39;7.83;;;5.37;;
16115;SDS011;8162;47.104;15.432;2023-07-20T01:26:11;7.87;;;5.07;;
16115;SDS011;8162;47.104;15.432;2023-07-20T01:29:26;7.83;;;4.77;;
16115;SDS011;8162;47.104;15.432;2023-07-20T01:32:33;5.63;;;4.80;;
16115;SDS011;8162;47.104;15.432;2023-07-20T01:35:34;10.13;;;5.13;;
16115;SDS011;8162;47.104;15.432;2023-07-20T01:38:36;5.47;;;4.40;;
16115;SDS011;8162;47.104;15.432;2023-07-20T01:41:37;5.43;;;4.27;;
16115;SDS011;8162;47.104;15.432;2023-07-20T01:44:39;7.03;;;5.03;;
16115;SDS011;8162;47.104;15.432;2023-07-20T01:47:40;7.93;;;4.80;;
16115;SDS011;8162;47.104;15.432;2023-07-20T01:50:41;6.40;;;5.00;;
16115;SDS011;8162;47.104;15.432;2023-07-20T01:53:42;4.90;;;4.37;;
16115;SDS011;8162;47.104;15.432;2023-07-20T01:56:43;6.00;;;4.77;;
16115;SDS011;8162;47.104;15.432;2023-07-20T01:59:44;6.33;;;4.53;;
16115;SDS011;8162;47.104;15.432;2023-07-20T02:02:45;5.13;;;4.27;;
16115;SDS011;8162;47.104;15.432;2023-07-20T02:05:46;6.67;;;4.23;;
16115;SDS011;8162;47.104;15.432;2023-07-20T02:08:47;5.77;;;5.00;;
16115;SDS011;8162;47.104;15.432;2023-07-20T02:11:48;6.03;;;4.40;;
16115;SDS011;8162;47.104;15.432;2023-07-20T02:14:50;7.43;;;4.80;;
16115;SDS011;8162;47.104;15.432;2023-07-20T02:17:51;6.83;;;4.83;;
16115;SDS011;8162;47.104;15.432;2023-07-20T02:20:52;5.30;;;4.33;;
16115;SDS011;8162;47.104;15.432;2023-07-20T02:23:54;6.63;;;4.60;;
16115;SDS011;8162;47.104;15.432;2023-07-20T02:26:55;5.63;;;4.70;;
16115;SDS011;8162;47.104;15.432;2023-07-20T02:29:56;5.83;;;5.00;;
16115;SDS011;8162;47.104;15.432;2023-07-20T02:32:57;5.87;;;4.53;;
16115;SDS011;8162;47.104;15.432;2023-07-20T02:35:58;5.13;;;4.47;;
16115;SDS011;8162;47.104;15.432;2023-07-20T02:38:59;5.37;;;4.27;;
16115;SDS011;8162;47.104;15.432;2023-07-20T02:42:03;6.37;;;4.47;;
16115;SDS011;8162;47.104;15.432;2023-07-20T02:45:04;4.83;;;4.37;;
16115;SDS011;8162;47.104;15.432;2023-07-20T02:48:06;7.50;;;4.33;;
16115;SDS011;8162;47.104;15.432;2023-07-20T02:51:08;4.67;;;4.27;;
16115;SDS011;8162;47.104;15.432;2023-07-20T02:54:09;6.67;;;4.20;;
16115;SDS011;8162;47.104;15.432;2023-07-20T02:57:10;6.00;;;4.17;;
16115;SDS011;8162;47.104;15.432;2023-07-20T03:00:11;4.63;;;3.90;;
16115;SDS011;8162;47.104;15.432;2023-07-20T03:03:16;7.20;;;4.47;;
16115;SDS011;8162;47.104;15.432;2023-07-20T03:06:17;5.37;;;4.10;;
16115;SDS011;8162;47.104;15.432;2023-07-20T03:09:18;7.97;;;5.17;;
16115;SDS011;8162;47.104;15.432;2023-07-20T03:12:19;5.00;;;4.50;;
16115;SDS011;8162;47.104;15.432;2023-07-20T03:15:20;7.67;;;3.87;;
16115;SDS011;8162;47.104;15.432;2023-07-20T03:18:21;4.63;;;3.53;;
16115;SDS011;8162;47.104;15.432;2023-07-20T03:21:22;5.93;;;3.90;;
16115;SDS011;8162;47.104;15.432;2023-07-20T03:24:24;5.13;;;3.50;;
16115;SDS011;8162;47.104;15.432;2023-07-20T03:27:25;3.73;;;3.40;;
16115;SDS011;8162;47.104;15.432;2023-07-20T03:30:26;3.93;;;3.63;;
16115;SDS011;8162;47.104;15.432;2023-07-20T03:33:28;5.73;;;3.80;;
16115;SDS011;8162;47.104;15.432;2023-07-20T03:36:30;5.63;;;4.30;;
16115;SDS011;8162;47.104;15.432;2023-07-20T03:39:31;4.37;;;3.83;;
16115;SDS011;8162;47.104;15.432;2023-07-20T03:42:32;7.17;;;4.33;;
16115;SDS011;8162;47.104;15.432;2023-07-20T03:45:33;4.27;;;3.87;;
16115;SDS011;8162;47.104;15.432;2023-07-20T03:48:34;7.57;;;4.40;;
16115;SDS011;8162;47.104;15.432;2023-07-20T03:51:36;6.07;;;3.70;;
16115;SDS011;8162;47.104;15.432;2023-07-20T03:54:37;4.37;;;3.97;;
16115;SDS011;8162;47.104;15.432;2023-07-20T03:57:38;5.77;;;3.63;;
16115;SDS011;8162;47.104;15.432;2023-07-20T04:00:39;4.33;;;3.50;;
16115;SDS011;8162;47.104;15.432;2023-07-20T04:03:40;4.20;;;3.80;;
16115;SDS011;8162;47.104;15.432;2023-07-20T04:06:42;5.37;;;4.00;;
16115;SDS011;8162;47.104;15.432;2023-07-20T04:09:46;4.40;;;3.63;;
16115;SDS011;8162;47.104;15.432;2023-07-20T04:12:47;4.87;;;3.80;;
16115;SDS011;8162;47.104;15.432;2023-07-20T04:15:48;4.60;;;3.93;;
16115;SDS011;8162;47.104;15.432;2023-07-20T04:18:49;6.30;;;3.80;;
16115;SDS011;8162;47.104;15.432;2023-07-20T04:21:50;4.30;;;3.87;;
16115;SDS011;8162;47.104;15.432;2023-07-20T04:24:51;5.23;;;3.33;;
16115;SDS011;8162;47.104;15.432;2023-07-20T04:27:52;4.50;;;4.10;;
16115;SDS011;8162;47.104;15.432;2023-07-20T04:30:53;4.43;;;3.60;;
16115;SDS011;8162;47.104;15.432;2023-07-20T04:33:54;6.27;;;3.77;;
16115;SDS011;8162;47.104;15.432;2023-07-20T04:36:55;6.37;;;4.40;;
16115;SDS011;8162;47.104;15.432;2023-07-20T04:39:56;6.00;;;3.77;;
16115;SDS011;8162;47.104;15.432;2023-07-20T04:42:57;5.03;;;3.93;;
16115;SDS011;8162;47.104;15.432;2023-07-20T04:45:58;6.07;;;3.63;;
16115;SDS011;8162;47.104;15.432;2023-07-20T04:48:59;4.20;;;3.73;;
16115;SDS011;8162;47.104;15.432;2023-07-20T04:52:01;4.20;;;3.50;;
16115;SDS011;8162;47.104;15.432;2023-07-20T04:55:03;4.63;;;3.53;;
16115;SDS011;8162;47.104;15.432;2023-07-20T04:58:05;4.23;;;3.70;;
16115;SDS011;8162;47.104;15.432;2023-07-20T05:01:06;4.83;;;3.77;;
16115;SDS011;8162;47.104;15.432;2023-07-20T05:04:07;5.23;;;4.03;;
16115;SDS011;8162;47.104;15.432;2023-07-20T05:07:08;4.40;;;4.00;;
16115;SDS011;8162;47.104;15.432;2023-07-20T05:10:09;5.67;;;3.50;;
16115;SDS011;8162;47.104;15.432;2023-07-20T05:13:10;7.67;;;4.33;;
16115;SDS011;8162;47.104;15.432;2023-07-20T05:16:11;6.27;;;4.20;;
16115;SDS011;8162;47.104;15.432;2023-07-20T05:19:12;4.73;;;4.23;;
16115;SDS011;8162;47.104;15.432;2023-07-20T05:22:14;4.30;;;3.90;;
16115;SDS011;8162;47.104;15.432;2023-07-20T05:25:15;5.00;;;4.10;;
16115;SDS011;8162;47.104;15.432;2023-07-20T05:28:18;4.80;;;4.30;;
16115;SDS011;8162;47.104;15.432;2023-07-20T05:31:19;4.80;;;4.10;;
16115;SDS011;8162;47.104;15.432;2023-07-20T05:34:20;6.23;;;4.10;;
16115;SDS011;8162;47.104;15.432;2023-07-20T05:37:21;5.90;;;4.00;;
16115;SDS011;8162;47.104;15.432;2023-07-20T05:40:22;9.97;;;4.27;;
16115;SDS011;8162;47.104;15.432;2023-07-20T05:43:23;4.23;;;3.63;;
16115;SDS011;8162;47.104;15.432;2023-07-20T05:46:24;5.43;;;4.10;;
16115;SDS011;8162;47.104;15.432;2023-07-20T05:49:25;5.20;;;4.03;;
16115;SDS011;8162;47.104;15.432;2023-07-20T05:52:26;4.63;;;3.73;;
16115;SDS011;8162;47.104;15.432;2023-07-20T05:55:27;4.63;;;3.43;;
16115;SDS011;8162;47.104;15.432;2023-07-20T05:58:28;4.30;;;3.83;;
16115;SDS011;8162;47.104;15.432;2023-07-20T06:01:29;5.03;;;4.33;;
16115;SDS011;8162;47.104;15.432;2023-07-20T06:04:30;4.50;;;4.00;;
16115;SDS011;8162;47.104;15.432;2023-07-20T06:07:31;4.03;;;3.63;;
16115;SDS011;8162;47.104;15.432;2023-07-20T06:10:32;4.40;;;4.00;;
16115;SDS011;8162;47.104;15.432;2023-07-20T06:13:33;4.93;;;3.83;;
16115;SDS011;8162;47.104;15.432;2023-07-20T06:16:34;4.40;;;4.00;;
16115;SDS011;8162;47.104;15.432;2023-07-20T06:19:35;5.83;;;4.27;;
16115;SDS011;8162;47.104;15.432;2023-07-20T06:22:37;4.20;;;3.80;;
16115;SDS011;8162;47.104;15.432;2023-07-20T06:25:38;4.67;;;4.17;;
16115;SDS011;8162;47.104;15.432;2023-07-20T06:28:39;6.07;;;4.30;;
16115;SDS011;8162;47.104;15.432;2023-07-20T06:31:40;8.37;;;4.37;;
16115;SDS011;8162;47.104;15.432;2023-07-20T06:34:41;5.60;;;4.27;;
16115;SDS011;8162;47.104;15.432;2023-07-20T06:37:42;4.20;;;3.80;;
16115;SDS011;8162;47.104;15.432;2023-07-20T06:40:43;4.23;;;3.93;;
16115;SDS011;8162;47.104;15.432;2023-07-20T06:43:45;4.77;;;3.57;;
16115;SDS011;8162;47.104;15.432;2023-07-20T06:46:46;6.60;;;4.33;;
16115;SDS011;8162;47.104;15.432;2023-07-20T06:49:47;4.70;;;4.20;;
16115;SDS011;8162;47.104;15.432;2023-07-20T06:52:48;4.97;;;4.30;;
16115;SDS011;8162;47.104;15.432;2023-07-20T06:55:49;4.87;;;4.10;;
16115;SDS011;8162;47.104;15.432;2023-07-20T06:58:50;3.80;;;3.50;;
16115;SDS011;8162;47.104;15.432;2023-07-20T07:01:51;8.27;;;5.37;;
16115;SDS011;8162;47.104;15.432;2023-07-20T07:04:52;6.83;;;4.37;;
16115;SDS011;8162;47.104;15.432;2023-07-20T07:07:53;6.23;;;4.53;;
16115;SDS011;8162;47.104;15.432;2023-07-20T07:10:54;7.50;;;4.00;;
16115;SDS011;8162;47.104;15.432;2023-07-20T07:13:55;5.27;;;4.20;;
16115;SDS011;8162;47.104;15.432;2023-07-20T07:16:56;4.60;;;4.20;;
16115;SDS011;8162;47.104;15.432;2023-07-20T07:19:58;6.23;;;4.43;;
16115;SDS011;8162;47.104;15.432;2023-07-20T07:22:59;9.60;;;4.63;;
16115;SDS011;8162;47.104;15.432;2023-07-20T07:26:00;7.37;;;5.17;;
16115;SDS011;8162;47.104;15.432;2023-07-20T07:29:01;5.70;;;4.33;;
16115;SDS011;8162;47.104;15.432;2023-07-20T07:32:02;5.63;;;4.57;;
16115;SDS011;8162;47.104;15.432;2023-07-20T07:35:04;7.77;;;4.70;;
16115;SDS011;8162;47.104;15.432;2023-07-20T07:38:05;5.47;;;4.50;;
16115;SDS011;8162;47.104;15.432;2023-07-20T07:41:06;5.57;;;4.80;;
16115;SDS011;8162;47.104;15.432;2023-07-20T07:44:07;6.40;;;4.80;;
16115;SDS011;8162;47.104;15.432;2023-07-20T07:47:08;7.70;;;5.00;;
16115;SDS011;8162;47.104;15.432;2023-07-20T07:50:10;7.57;;;4.63;;
16115;SDS011;8162;47.104;15.432;2023-07-20T07:53:11;6.17;;;4.33;;
16115;SDS011;8162;47.104;15.432;2023-07-20T07:56:12;8.80;;;4.53;;
16115;SDS011;8162;47.104;15.432;2023-07-20T07:59:13;6.67;;;5.13;;
16115;SDS011;8162;47.104;15.432;2023-07-20T08:02:15;4.80;;;4.40;;
16115;SDS011;8162;47.104;15.432;2023-07-20T08:05:16;4.57;;;4.17;;
16115;SDS011;8162;47.104;15.432;2023-07-20T08:08:17;4.83;;;4.00;;
16115;SDS011;8162;47.104;15.432;2023-07-20T08:11:18;4.33;;;3.93;;
16115;SDS011;8162;47.104;15.432;2023-07-20T08:14:19;7.80;;;4.60;;
16115;SDS011;8162;47.104;15.432;2023-07-20T08:17:20;5.20;;;4.03;;
16115;SDS011;8162;47.104;15.432;2023-07-20T08:20:21;4.63;;;4.23;;
16115;SDS011;8162;47.104;15.432;2023-07-20T08:23:26;6.43;;;4.43;;
16115;SDS011;8162;47.104;15.432;2023-07-20T08:26:27;4.77;;;4.27;;
16115;SDS011;8162;47.104;15.432;2023-07-20T08:29:28;7.00;;;3.93;;
16115;SDS011;8162;47.104;15.432;2023-07-20T08:32:29;7.73;;;3.97;;
16115;SDS011;8162;47.104;15.432;2023-07-20T08:35:30;6.03;;;3.90;;
16115;SDS011;8162;47.104;15.432;2023-07-20T08:38:31;4.83;;;3.27;;
16115;SDS011;8162;47.104;15.432;2023-07-20T08:41:32;4.03;;;3.40;;
16115;SDS011;8162;47.104;15.432;2023-07-20T08:44:34;3.40;;;3.10;;
16115;SDS011;8162;47.104;15.432;2023-07-20T08:47:36;3.93;;;3.57;;
16115;SDS011;8162;47.104;15.432;2023-07-20T08:50:37;4.70;;;3.10;;
16115;SDS011;8162;47.104;15.432;2023-07-20T08:53:39;4.90;;;3.53;;
16115;SDS011;8162;47.104;15.432;2023-07-20T08:56:40;3.60;;;2.97;;
16115;SDS011;8162;47.104;15.432;2023-07-20T08:59:41;3.50;;;3.20;;
16115;SDS011;8162;47.104;15.432;2023-07-20T09:02:43;3.63;;;2.97;;
16115;SDS011;8162;47.104;15.432;2023-07-20T09:05:45;3.17;;;2.70;;
16115;SDS011;8162;47.104;15.432;2023-07-20T09:08:46;2.87;;;2.63;;
16115;SDS011;8162;47.104;15.432;2023-07-20T09:11:49;5.27;;;3.00;;
16115;SDS011;8162;47.104;15.432;2023-07-20T09:14:50;3.30;;;3.00;;
16115;SDS011;8162;47.104;15.432;2023-07-20T09:17:51;3.70;;;3.40;;
16115;SDS011;8162;47.104;15.432;2023-07-20T09:20:57;4.40;;;3.23;;
16115;SDS011;8162;47.104;15.432;2023-07-20T09:23:59;3.97;;;3.47;;
16115;SDS011;8162;47.104;15.432;2023-07-20T09:27:01;4.57;;;3.43;;
16115;SDS011;8162;47.104;15.432;2023-07-20T09:30:05;4.00;;;3.03;;
16115;SDS011;8162;47.104;15.432;2023-07-20T09:33:18;3.30;;;3.00;;
16115;SDS011;8162;47.104;15.432;2023-07-20T09:36:19;3.10;;;2.80;;
16115;SDS011;8162;47.104;15.432;2023-07-20T09:39:20;6.90;;;3.50;;
16115;SDS011;8162;47.104;15.432;2023-07-20T09:42:22;3.20;;;2.90;;
16115;SDS011;8162;47.104;15.432;2023-07-20T09:45:34;4.60;;;3.63;;
16115;SDS011;8162;47.104;15.432;2023-07-20T09:48:36;3.27;;;2.97;;
16115;SDS011;8162;47.104;15.432;2023-07-20T09:51:37;3.90;;;2.80;;
16115;SDS011;8162;47.104;15.432;2023-07-20T09:54:39;4.33;;;3.23;;
16115;SDS011;8162;47.104;15.432;2023-07-20T09:57:40;3.50;;;3.20;;
16115;SDS011;8162;47.104;15.432;2023-07-20T10:00:42;5.37;;;3.43;;
16115;SDS011;8162;47.104;15.432;2023-07-20T10:03:45;4.27;;;3.23;;
16115;SDS011;8162;47.104;15.432;2023-07-20T10:06:46;6.37;;;3.20;;
16115;SDS011;8162;47.104;15.432;2023-07-20T10:09:49;4.10;;;3.10;;
16115;SDS011;8162;47.104;15.432;2023-07-20T10:12:52;3.90;;;3.47;;
16115;SDS011;8162;47.104;15.432;2023-07-20T10:15:54;4.03;;;3.40;;
16115;SDS011;8162;47.104;15.432;2023-07-20T10:19:05;4.80;;;3.80;;
16115;SDS011;8162;47.104;15.432;2023-07-20T10:22:11;6.50;;;4.57;;
16115;SDS011;8162;47.104;15.432;2023-07-20T10:25:16;7.37;;;4.27;;
16115;SDS011;8162;47.104;15.432;2023-07-20T10:28:20;5.63;;;4.00;;
16115;SDS011;8162;47.104;15.432;2023-07-20T10:31:23;5.30;;;4.80;;
16115;SDS011;8162;47.104;15.432;2023-07-20T10:34:24;6.03;;;4.67;;
16115;SDS011;8162;47.104;15.432;2023-07-20T10:41:15;8.97;;;6.30;;
16115;SDS011;8162;47.104;15.432;2023-07-20T10:44:19;6.60;;;5.90;;
16115;SDS011;8162;47.104;15.432;2023-07-20T10:47:20;7.20;;;5.97;;
16115;SDS011;8162;47.104;15.432;2023-07-20T10:50:21;6.73;;;5.97;;
16115;SDS011;8162;47.104;15.432;2023-07-20T10:53:22;5.93;;;5.33;;
16115;SDS011;8162;47.104;15.432;2023-07-20T10:56:26;5.57;;;5.07;;
16115;SDS011;8162;47.104;15.432;2023-07-20T11:02:30;5.63;;;5.10;;
16115;SDS011;8162;47.104;15.432;2023-07-20T11:05:42;6.47;;;5.33;;
16115;SDS011;8162;47.104;15.432;2023-07-20T11:08:43;5.10;;;4.57;;
16115;SDS011;8162;47.104;15.432;2023-07-20T11:11:47;6.47;;;5.10;;
16115;SDS011;8162;47.104;15.432;2023-07-20T11:14:56;4.97;;;4.47;;
16115;SDS011;8162;47.104;15.432;2023-07-20T11:18:10;8.63;;;5.17;;
16115;SDS011;8162;47.104;15.432;2023-07-20T11:21:12;3.87;;;3.57;;
16115;SDS011;8162;47.104;15.432;2023-07-20T11:24:13;5.03;;;4.00;;
16115;SDS011;8162;47.104;15.432;2023-07-20T11:27:14;6.47;;;4.80;;
16115;SDS011;8162;47.104;15.432;2023-07-20T11:30:16;5.30;;;3.50;;
16115;SDS011;8162;47.104;15.432;2023-07-20T11:33:17;7.47;;;3.93;;
16115;SDS011;8162;47.104;15.432;2023-07-20T11:36:18;4.63;;;3.80;;
16115;SDS011;8162;47.104;15.432;2023-07-20T11:39:19;5.03;;;3.87;;
16115;SDS011;8162;47.104;15.432;2023-07-20T11:42:22;4.73;;;3.33;;
16115;SDS011;8162;47.104;15.432;2023-07-20T11:45:23;5.30;;;3.47;;
16115;SDS011;8162;47.104;15.432;2023-07-20T11:48:24;5.10;;;3.77;;
16115;SDS011;8162;47.104;15.432;2023-07-20T11:51:28;5.77;;;3.90;;
16115;SDS011;8162;47.104;15.432;2023-07-20T11:54:29;4.50;;;3.80;;
16115;SDS011;8162;47.104;15.432;2023-07-20T11:57:31;7.37;;;3.53;;
16115;SDS011;8162;47.104;15.432;2023-07-20T12:00:33;4.20;;;3.80;;
16115;SDS011;8162;47.104;15.432;2023-07-20T12:03:35;4.83;;;3.70;;
16115;SDS011;8162;47.104;15.432;2023-07-20T12:06:36;3.27;;;2.93;;
16115;SDS011;8162;47.104;15.432;2023-07-20T12:09:37;3.20;;;2.83;;
16115;SDS011;8162;47.104;15.432;2023-07-20T12:12:38;4.60;;;3.17;;
16115;SDS011;8162;47.104;15.432;2023-07-20T12:15:40;3.37;;;3.07;;
16115;SDS011;8162;47.104;15.432;2023-07-20T12:18:42;3.83;;;3.30;;
16115;SDS011;8162;47.104;15.432;2023-07-20T12:21:43;4.33;;;3.10;;
16115;SDS011;8162;47.104;15.432;2023-07-20T12:24:45;5.40;;;2.77;;
16115;SDS011;8162;47.104;15.432;2023-07-20T12:27:47;5.37;;;2.80;;
16115;SDS011;8162;47.104;15.432;2023-07-20T12:30:48;3.33;;;3.03;;
16115;SDS011;8162;47.104;15.432;2023-07-20T12:33:56;3.73;;;2.93;;
16115;SDS011;8162;47.104;15.432;2023-07-20T12:36:57;3.73;;;3.33;;
16115;SDS011;8162;47.104;15.432;2023-07-20T12:39:59;4.67;;;3.23;;
16115;SDS011;8162;47.104;15.432;2023-07-20T12:43:00;3.13;;;2.83;;
16115;SDS011;8162;47.104;15.432;2023-07-20T12:46:01;4.57;;;3.37;;
16115;SDS011;8162;47.104;15.432;2023-07-20T12:49:02;4.93;;;3.13;;
16115;SDS011;8162;47.104;15.432;2023-07-20T12:52:03;3.60;;;3.17;;
16115;SDS011;8162;47.104;15.432;2023-07-20T12:55:05;4.63;;;3.53;;
16115;SDS011;8162;47.104;15.432;2023-07-20T12:58:06;5.80;;;3.93;;
16115;SDS011;8162;47.104;15.432;2023-07-20T13:01:08;4.37;;;3.67;;
16115;SDS011;8162;47.104;15.432;2023-07-20T13:04:09;6.63;;;4.30;;
16115;SDS011;8162;47.104;15.432;2023-07-20T13:07:10;5.13;;;4.07;;
16115;SDS011;8162;47.104;15.432;2023-07-20T13:10:14;6.10;;;4.27;;
16115;SDS011;8162;47.104;15.432;2023-07-20T13:13:15;5.43;;;4.43;;
16115;SDS011;8162;47.104;15.432;2023-07-20T13:16:16;5.07;;;4.17;;
16115;SDS011;8162;47.104;15.432;2023-07-20T13:19:17;7.57;;;4.20;;
16115;SDS011;8162;47.104;15.432;2023-07-20T13:22:18;4.87;;;4.10;;
16115;SDS011;8162;47.104;15.432;2023-07-20T13:25:19;5.77;;;4.37;;
16115;SDS011;8162;47.104;15.432;2023-07-20T13:28:20;5.73;;;4.13;;
16115;SDS011;8162;47.104;15.432;2023-07-20T13:31:21;5.00;;;4.10;;
16115;SDS011;8162;47.104;15.432;2023-07-20T13:34:23;4.47;;;3.73;;
16115;SDS011;8162;47.104;15.432;2023-07-20T13:37:24;5.50;;;4.30;;
16115;SDS011;8162;47.104;15.432;2023-07-20T13:40:25;5.33;;;3.90;;
16115;SDS011;8162;47.104;15.432;2023-07-20T13:43:26;3.70;;;3.40;;
16115;SDS011;8162;47.104;15.432;2023-07-20T13:46:27;6.57;;;3.63;;
16115;SDS011;8162;47.104;15.432;2023-07-20T13:49:28;3.77;;;3.37;;
16115;SDS011;8162;47.104;15.432;2023-07-20T13:52:29;4.93;;;3.07;;
16115;SDS011;8162;47.104;15.432;2023-07-20T13:55:30;3.87;;;3.00;;
16115;SDS011;8162;47.104;15.432;2023-07-20T13:58:33;4.10;;;2.70;;
16115;SDS011;8162;47.104;15.432;2023-07-20T14:01:34;4.43;;;3.33;;
16115;SDS011;8162;47.104;15.432;2023-07-20T14:04:36;4.17;;;3.47;;
16115;SDS011;8162;47.104;15.432;2023-07-20T14:07:37;3.00;;;2.77;;
16115;SDS011;8162;47.104;15.432;2023-07-20T14:10:38;3.80;;;3.30;;
16115;SDS011;8162;47.104;15.432;2023-07-20T14:13:39;3.57;;;3.20;;
16115;SDS011;8162;47.104;15.432;2023-07-20T14:16:40;4.53;;;3.60;;
16115;SDS011;8162;47.104;15.432;2023-07-20T14:19:41;4.13;;;3.70;;
16115;SDS011;8162;47.104;15.432;2023-07-20T14:22:42;4.40;;;3.27;;
16115;SDS011;8162;47.104;15.432;2023-07-20T14:25:44;3.80;;;3.27;;
16115;SDS011;8162;47.104;15.432;2023-07-20T14:28:45;3.57;;;3.27;;
16115;SDS011;8162;47.104;15.432;2023-07-20T14:31:46;3.47;;;2.93;;
16115;SDS011;8162;47.104;15.432;2023-07-20T14:34:50;3.60;;;3.30;;
16115;SDS011;8162;47.104;15.432;2023-07-20T14:37:51;7.53;;;3.73;;
16115;SDS011;8162;47.104;15.432;2023-07-20T14:40:52;4.77;;;3.33;;
16115;SDS011;8162;47.104;15.432;2023-07-20T14:43:54;6.03;;;3.73;;
16115;SDS011;8162;47.104;15.432;2023-07-20T14:46:55;4.33;;;3.80;;
16115;SDS011;8162;47.104;15.432;2023-07-20T14:49:56;3.83;;;3.43;;
16115;SDS011;8162;47.104;15.432;2023-07-20T14:52:57;4.80;;;3.70;;
16115;SDS011;8162;47.104;15.432;2023-07-20T14:56:01;5.13;;;3.43;;
16115;SDS011;8162;47.104;15.432;2023-07-20T14:59:03;4.47;;;3.50;;
16115;SDS011;8162;47.104;15.432;2023-07-20T15:02:05;4.40;;;3.37;;
16115;SDS011;8162;47.104;15.432;2023-07-20T15:05:07;8.87;;;4.13;;
16115;SDS011;8162;47.104;15.432;2023-07-20T15:08:08;4.60;;;3.57;;
16115;SDS011;8162;47.104;15.432;2023-07-20T15:11:09;4.27;;;3.67;;
16115;SDS011;8162;47.104;15.432;2023-07-20T15:14:10;4.20;;;3.80;;
16115;SDS011;8162;47.104;15.432;2023-07-20T15:17:11;3.93;;;3.63;;
16115;SDS011;8162;47.104;15.432;2023-07-20T15:20:12;5.80;;;3.67;;
16115;SDS011;8162;47.104;15.432;2023-07-20T15:23:14;4.27;;;3.87;;
16115;SDS011;8162;47.104;15.432;2023-07-20T15:26:15;5.87;;;3.73;;
16115;SDS011;8162;47.104;15.432;2023-07-20T15:29:16;4.70;;;3.77;;
16115;SDS011;8162;47.104;15.432;2023-07-20T15:32:17;4.40;;;3.70;;
16115;SDS011;8162;47.104;15.432;2023-07-20T15:35:19;4.87;;;3.03;;
16115;SDS011;8162;47.104;15.432;2023-07-20T15:38:20;3.70;;;3.40;;
16115;SDS011;8162;47.104;15.432;2023-07-20T15:41:21;5.97;;;3.70;;
16115;SDS011;8162;47.104;15.432;2023-07-20T15:44:22;5.00;;;3.80;;
16115;SDS011;8162;47.104;15.432;2023-07-20T15:47:23;5.43;;;4.00;;
16115;SDS011;8162;47.104;15.432;2023-07-20T15:50:24;5.20;;;4.70;;
16115;SDS011;8162;47.104;15.432;2023-07-20T15:53:25;6.03;;;4.07;;
16115;SDS011;8162;47.104;15.432;2023-07-20T15:56:26;6.33;;;3.87;;
16115;SDS011;8162;47.104;15.432;2023-07-20T15:59:27;5.53;;;4.20;;
16115;SDS011;8162;47.104;15.432;2023-07-20T16:02:28;4.67;;;3.53;;
16115;SDS011;8162;47.104;15.432;2023-07-20T16:05:29;5.93;;;4.03;;
16115;SDS011;8162;47.104;15.432;2023-07-20T16:08:30;4.73;;;4.23;;
16115;SDS011;8162;47.104;15.432;2023-07-20T16:11:35;4.27;;;3.83;;
16115;SDS011;8162;47.104;15.432;2023-07-20T16:14:36;4.40;;;3.80;;
16115;SDS011;8162;47.104;15.432;2023-07-20T16:17:37;5.47;;;4.10;;
16115;SDS011;8162;47.104;15.432;2023-07-20T16:20:38;4.70;;;3.67;;
16115;SDS011;8162;47.104;15.432;2023-07-20T16:23:39;4.73;;;3.70;;
16115;SDS011;8162;47.104;15.432;2023-07-20T16:26:40;4.30;;;3.77;;
16115;SDS011;8162;47.104;15.432;2023-07-20T16:29:43;4.60;;;4.20;;
16115;SDS011;8162;47.104;15.432;2023-07-20T16:32:44;4.03;;;3.60;;
16115;SDS011;8162;47.104;15.432;2023-07-20T16:35:45;5.33;;;3.93;;
16115;SDS011;8162;47.104;15.432;2023-07-20T16:38:46;6.23;;;4.20;;
16115;SDS011;8162;47.104;15.432;2023-07-20T16:41:48;5.27;;;4.17;;
16115;SDS011;8162;47.104;15.432;2023-07-20T16:44:49;5.00;;;4.50;;
16115;SDS011;8162;47.104;15.432;2023-07-20T16:47:51;7.47;;;4.53;;
16115;SDS011;8162;47.104;15.432;2023-07-20T16:50:52;6.03;;;4.13;;
16115;SDS011;8162;47.104;15.432;2023-07-20T16:53:53;4.40;;;4.00;;
16115;SDS011;8162;47.104;15.432;2023-07-20T16:56:54;4.57;;;3.93;;
16115;SDS011;8162;47.104;15.432;2023-07-20T16:59:55;5.07;;;3.90;;
16115;SDS011;8162;47.104;15.432;2023-07-20T17:02:56;5.30;;;3.97;;
16115;SDS011;8162;47.104;15.432;2023-07-20T17:05:58;4.37;;;3.97;;
16115;SDS011;8162;47.104;15.432;2023-07-20T17:08:59;6.53;;;4.67;;
16115;SDS011;8162;47.104;15.432;2023-07-20T17:12:01;6.13;;;4.90;;
16115;SDS011;8162;47.104;15.432;2023-07-20T17:15:02;4.43;;;3.87;;
16115;SDS011;8162;47.104;15.432;2023-07-20T17:18:03;5.87;;;4.40;;
16115;SDS011;8162;47.104;15.432;2023-07-20T17:21:05;6.60;;;5.20;;
16115;SDS011;8162;47.104;15.432;2023-07-20T17:24:06;5.27;;;4.77;;
16115;SDS011;8162;47.104;15.432;2023-07-20T17:27:09;5.07;;;4.53;;
16115;SDS011;8162;47.104;15.432;2023-07-20T17:30:11;5.20;;;4.63;;
16115;SDS011;8162;47.104;15.432;2023-07-20T17:33:13;6.83;;;4.47;;
16115;SDS011;8162;47.104;15.432;2023-07-20T17:36:15;7.97;;;4.70;;
16115;SDS011;8162;47.104;15.432;2023-07-20T17:39:17;7.40;;;4.97;;
16115;SDS011;8162;47.104;15.432;2023-07-20T17:42:18;6.97;;;4.60;;
16115;SDS011;8162;47.104;15.432;2023-07-20T17:45:19;5.33;;;4.50;;
16115;SDS011;8162;47.104;15.432;2023-07-20T17:48:22;7.03;;;4.90;;
16115;SDS011;8162;47.104;15.432;2023-07-20T17:51:23;5.80;;;5.00;;
16115;SDS011;8162;47.104;15.432;2023-07-20T17:54:24;9.73;;;5.23;;
16115;SDS011;8162;47.104;15.432;2023-07-20T17:57:26;6.00;;;5.13;;
16115;SDS011;8162;47.104;15.432;2023-07-20T18:00:27;6.10;;;4.80;;
16115;SDS011;8162;47.104;15.432;2023-07-20T18:03:28;5.10;;;4.47;;
16115;SDS011;8162;47.104;15.432;2023-07-20T18:06:29;5.33;;;4.83;;
16115;SDS011;8162;47.104;15.432;2023-07-20T18:09:31;6.70;;;4.43;;
16115;SDS011;8162;47.104;15.432;2023-07-20T18:12:32;6.10;;;4.73;;
16115;SDS011;8162;47.104;15.432;2023-07-20T18:15:35;8.20;;;5.30;;
16115;SDS011;8162;47.104;15.432;2023-07-20T18:18:36;5.47;;;4.90;;
16115;SDS011;8162;47.104;15.432;2023-07-20T18:21:37;7.37;;;5.20;;
16115;SDS011;8162;47.104;15.432;2023-07-20T18:24:39;7.17;;;4.70;;